sensor_id;sensor_type;location;lat;lon;timestamp;P1;durP1;ratioP1;P2;durP2;ratioP2
8353;SDS011;4656;48.090;11.498;2024-02-28T00:01:38;15.55;;;10.88;;
8353;SDS011;4656;48.090;11.498;2024-02-28T00:03:40;17.85;;;11.32;;
8353;SDS011;4656;48.090;11.498;2024-02-28T00:05:42;16.50;;;11.43;;
8353;SDS011;4656;48.090;11.498;2024-02-28T00:07:45;17.63;;;11.70;;
8353;SDS011;4656;48.090;11.498;2024-02-28T00:09:49;16.70;;;11.25;;
8353;SDS011;4656;48.090;11.498;2024-02-28T00:11:50;17.05;;;10.48;;
8353;SDS011;4656;48.090;11.498;2024-02-28T00:13:52;17.00;;;10.45;;
8353;SDS011;4656;48.090;11.498;2024-02-28T00:15:54;16.63;;;10.48;;
8353;SDS011;4656;48.090;11.498;2024-02-28T00:17:56;17.58;;;10.88;;
8353;SDS011;4656;48.090;11.498;2024-02-28T00:19:59;15.73;;;10.50;;
8353;SDS011;4656;48.090;11.498;2024-02-28T00:22:01;16.23;;;10.65;;
8353;SDS011;4656;48.090;11.498;2024-02-28T00:24:03;19.33;;;11.05;;
8353;SDS011;4656;48.090;11.498;2024-02-28T00:26:06;19.08;;;12.07;;
8353;SDS011;4656;48.090;11.498;2024-02-28T00:28:09;17.63;;;11.35;;
8353;SDS011;4656;48.090;11.498;2024-02-28T00:30:11;19.55;;;11.43;;
8353;SDS011;4656;48.090;11.498;2024-02-28T00:32:12;20.20;;;11.37;;
8353;SDS011;4656;48.090;11.498;2024-02-28T00:34:14;17.08;;;11.38;;
8353;SDS011;4656;48.090;11.498;2024-02-28T00:36:16;17.27;;;11.30;;
8353;SDS011;4656;48.090;11.498;2024-02-28T00:38:19;16.55;;;11.23;;
8353;SDS011;4656;48.090;11.498;2024-02-28T00:40:21;16.03;;;11.03;;
8353;SDS011;4656;48.090;11.498;2024-02-28T00:42:24;19.70;;;11.43;;
8353;SDS011;4656;48.090;11.498;2024-02-28T00:44:27;18.13;;;11.52;;
8353;SDS011;4656;48.090;11.498;2024-02-28T00:46:29;16.95;;;11.35;;
8353;SDS011;4656;48.090;11.498;2024-02-28T00:48:31;17.37;;;10.83;;
8353;SDS011;4656;48.090;11.498;2024-02-28T00:50:33;16.73;;;11.30;;
8353;SDS011;4656;48.090;11.498;2024-02-28T00:52:35;16.53;;;11.53;;
8353;SDS011;4656;48.090;11.498;2024-02-28T00:54:37;16.67;;;11.05;;
8353;SDS011;4656;48.090;11.498;2024-02-28T00:56:39;19.23;;;11.63;;
8353;SDS011;4656;48.090;11.498;2024-02-28T00:58:43;15.68;;;10.88;;
8353;SDS011;4656;48.090;11.498;2024-02-28T01:00:46;18.42;;;11.90;;
8353;SDS011;4656;48.090;11.498;2024-02-28T01:02:48;20.50;;;12.00;;
8353;SDS011;4656;48.090;11.498;2024-02-28T01:04:50;18.10;;;11.38;;
8353;SDS011;4656;48.090;11.498;2024-02-28T01:06:52;18.52;;;12.27;;
8353;SDS011;4656;48.090;11.498;2024-02-28T01:08:55;17.10;;;10.85;;
8353;SDS011;4656;48.090;11.498;2024-02-28T01:10:57;16.60;;;11.18;;
8353;SDS011;4656;48.090;11.498;2024-02-28T01:13:00;18.50;;;12.32;;
8353;SDS011;4656;48.090;11.498;2024-02-28T01:15:03;17.58;;;11.57;;
8353;SDS011;4656;48.090;11.498;2024-02-28T01:17:04;18.20;;;11.52;;
8353;SDS011;4656;48.090;11.498;2024-02-28T01:19:07;19.35;;;11.25;;
8353;SDS011;4656;48.090;11.498;2024-02-28T01:21:09;16.85;;;11.25;;
8353;SDS011;4656;48.090;11.498;2024-02-28T01:23:11;18.48;;;11.65;;
8353;SDS011;4656;48.090;11.498;2024-02-28T01:25:12;18.27;;;11.93;;
8353;SDS011;4656;48.090;11.498;2024-02-28T01:27:14;19.25;;;11.88;;
8353;SDS011;4656;48.090;11.498;2024-02-28T01:29:16;15.35;;;10.73;;
8353;SDS011;4656;48.090;11.498;2024-02-28T01:31:19;17.85;;;11.40;;
8353;SDS011;4656;48.090;11.498;2024-02-28T01:33:21;18.40;;;11.05;;
8353;SDS011;4656;48.090;11.498;2024-02-28T01:35:22;16.35;;;12.07;;
8353;SDS011;4656;48.090;11.498;2024-02-28T01:37:24;17.00;;;11.43;;
8353;SDS011;4656;48.090;11.498;2024-02-28T01:39:26;16.92;;;10.93;;
8353;SDS011;4656;48.090;11.498;2024-02-28T01:41:28;17.63;;;11.40;;
8353;SDS011;4656;48.090;11.498;2024-02-28T01:43:30;18.23;;;12.25;;
8353;SDS011;4656;48.090;11.498;2024-02-28T01:45:32;17.77;;;11.48;;
8353;SDS011;4656;48.090;11.498;2024-02-28T01:47:35;18.15;;;11.98;;
8353;SDS011;4656;48.090;11.498;2024-02-28T01:49:37;16.00;;;11.52;;
8353;SDS011;4656;48.090;11.498;2024-02-28T01:51:40;18.20;;;12.20;;
8353;SDS011;4656;48.090;11.498;2024-02-28T01:53:43;19.07;;;11.83;;
8353;SDS011;4656;48.090;11.498;2024-02-28T01:55:46;18.13;;;12.07;;
8353;SDS011;4656;48.090;11.498;2024-02-28T01:57:48;17.42;;;11.60;;
8353;SDS011;4656;48.090;11.498;2024-02-28T01:59:51;18.10;;;12.27;;
8353;SDS011;4656;48.090;11.498;2024-02-28T02:01:54;20.75;;;12.88;;
8353;SDS011;4656;48.090;11.498;2024-02-28T02:03:58;19.48;;;12.43;;
8353;SDS011;4656;48.090;11.498;2024-02-28T02:06:01;18.77;;;12.30;;
8353;SDS011;4656;48.090;11.498;2024-02-28T02:08:03;17.73;;;11.95;;
8353;SDS011;4656;48.090;11.498;2024-02-28T02:10:05;18.20;;;12.50;;
8353;SDS011;4656;48.090;11.498;2024-02-28T02:12:10;17.87;;;12.40;;
8353;SDS011;4656;48.090;11.498;2024-02-28T02:14:13;20.40;;;12.57;;
8353;SDS011;4656;48.090;11.498;2024-02-28T02:16:15;17.27;;;12.38;;
8353;SDS011;4656;48.090;11.498;2024-02-28T02:18:16;21.60;;;13.43;;
8353;SDS011;4656;48.090;11.498;2024-02-28T02:20:19;18.98;;;12.38;;
8353;SDS011;4656;48.090;11.498;2024-02-28T02:22:23;22.75;;;13.02;;
8353;SDS011;4656;48.090;11.498;2024-02-28T02:24:28;21.02;;;13.27;;
8353;SDS011;4656;48.090;11.498;2024-02-28T02:26:30;18.30;;;12.20;;
8353;SDS011;4656;48.090;11.498;2024-02-28T02:28:33;22.35;;;13.10;;
8353;SDS011;4656;48.090;11.498;2024-02-28T02:30:35;18.17;;;11.90;;
8353;SDS011;4656;48.090;11.498;2024-02-28T02:32:37;17.70;;;12.25;;
8353;SDS011;4656;48.090;11.498;2024-02-28T02:34:39;21.10;;;12.97;;
8353;SDS011;4656;48.090;11.498;2024-02-28T02:36:41;18.92;;;11.80;;
8353;SDS011;4656;48.090;11.498;2024-02-28T02:38:43;18.75;;;11.88;;
8353;SDS011;4656;48.090;11.498;2024-02-28T02:40:49;19.13;;;12.20;;
8353;SDS011;4656;48.090;11.498;2024-02-28T02:42:51;21.63;;;12.73;;
8353;SDS011;4656;48.090;11.498;2024-02-28T02:44:53;18.83;;;11.97;;
8353;SDS011;4656;48.090;11.498;2024-02-28T02:46:54;18.77;;;12.30;;
8353;SDS011;4656;48.090;11.498;2024-02-28T02:48:56;23.90;;;12.03;;
8353;SDS011;4656;48.090;11.498;2024-02-28T02:50:58;18.08;;;12.38;;
8353;SDS011;4656;48.090;11.498;2024-02-28T02:53:01;20.60;;;13.38;;
8353;SDS011;4656;48.090;11.498;2024-02-28T02:55:04;16.63;;;11.73;;
8353;SDS011;4656;48.090;11.498;2024-02-28T02:57:07;21.27;;;12.43;;
8353;SDS011;4656;48.090;11.498;2024-02-28T02:59:09;18.20;;;12.25;;
8353;SDS011;4656;48.090;11.498;2024-02-28T03:01:11;18.00;;;12.32;;
8353;SDS011;4656;48.090;11.498;2024-02-28T03:03:13;21.58;;;12.73;;
8353;SDS011;4656;48.090;11.498;2024-02-28T03:05:15;18.73;;;11.93;;
8353;SDS011;4656;48.090;11.498;2024-02-28T03:07:17;20.80;;;12.80;;
8353;SDS011;4656;48.090;11.498;2024-02-28T03:09:19;18.75;;;12.18;;
8353;SDS011;4656;48.090;11.498;2024-02-28T03:11:21;18.15;;;12.68;;
8353;SDS011;4656;48.090;11.498;2024-02-28T03:13:24;22.43;;;13.60;;
8353;SDS011;4656;48.090;11.498;2024-02-28T03:15:26;21.23;;;14.10;;
8353;SDS011;4656;48.090;11.498;2024-02-28T03:17:30;21.38;;;13.35;;
8353;SDS011;4656;48.090;11.498;2024-02-28T03:19:32;21.65;;;13.98;;
8353;SDS011;4656;48.090;11.498;2024-02-28T03:21:35;22.67;;;14.48;;
8353;SDS011;4656;48.090;11.498;2024-02-28T03:23:37;23.65;;;14.65;;
8353;SDS011;4656;48.090;11.498;2024-02-28T03:25:40;25.45;;;16.27;;
8353;SDS011;4656;48.090;11.498;2024-02-28T03:27:42;26.83;;;15.67;;
8353;SDS011;4656;48.090;11.498;2024-02-28T03:29:45;24.83;;;15.25;;
8353;SDS011;4656;48.090;11.498;2024-02-28T03:31:48;27.13;;;16.40;;
8353;SDS011;4656;48.090;11.498;2024-02-28T03:33:50;25.48;;;16.42;;
8353;SDS011;4656;48.090;11.498;2024-02-28T03:35:52;25.88;;;16.58;;
8353;SDS011;4656;48.090;11.498;2024-02-28T03:37:54;27.58;;;15.65;;
8353;SDS011;4656;48.090;11.498;2024-02-28T03:39:56;26.15;;;17.08;;
8353;SDS011;4656;48.090;11.498;2024-02-28T03:41:58;26.30;;;16.35;;
8353;SDS011;4656;48.090;11.498;2024-02-28T03:44:00;27.17;;;16.95;;
8353;SDS011;4656;48.090;11.498;2024-02-28T03:46:04;28.13;;;16.33;;
8353;SDS011;4656;48.090;11.498;2024-02-28T03:48:06;24.83;;;16.17;;
8353;SDS011;4656;48.090;11.498;2024-02-28T03:50:08;25.97;;;16.03;;
8353;SDS011;4656;48.090;11.498;2024-02-28T03:52:10;26.38;;;16.88;;
8353;SDS011;4656;48.090;11.498;2024-02-28T03:54:12;29.08;;;17.88;;
8353;SDS011;4656;48.090;11.498;2024-02-28T03:56:21;31.75;;;17.45;;
8353;SDS011;4656;48.090;11.498;2024-02-28T03:58:24;31.45;;;18.13;;
8353;SDS011;4656;48.090;11.498;2024-02-28T04:00:35;29.02;;;17.80;;
8353;SDS011;4656;48.090;11.498;2024-02-28T04:02:39;27.52;;;18.13;;
8353;SDS011;4656;48.090;11.498;2024-02-28T04:04:41;28.65;;;17.17;;
8353;SDS011;4656;48.090;11.498;2024-02-28T04:06:43;28.05;;;17.60;;
8353;SDS011;4656;48.090;11.498;2024-02-28T04:08:45;27.10;;;16.25;;
8353;SDS011;4656;48.090;11.498;2024-02-28T04:10:46;27.90;;;16.70;;
8353;SDS011;4656;48.090;11.498;2024-02-28T04:12:50;24.48;;;15.85;;
8353;SDS011;4656;48.090;11.498;2024-02-28T04:14:52;25.15;;;15.95;;
8353;SDS011;4656;48.090;11.498;2024-02-28T04:16:57;27.77;;;17.00;;
8353;SDS011;4656;48.090;11.498;2024-02-28T04:19:01;25.90;;;16.00;;
8353;SDS011;4656;48.090;11.498;2024-02-28T04:21:03;25.75;;;17.23;;
8353;SDS011;4656;48.090;11.498;2024-02-28T04:23:05;26.10;;;16.80;;
8353;SDS011;4656;48.090;11.498;2024-02-28T04:25:07;26.45;;;15.90;;
8353;SDS011;4656;48.090;11.498;2024-02-28T04:27:10;26.45;;;15.95;;
8353;SDS011;4656;48.090;11.498;2024-02-28T04:29:11;29.20;;;17.38;;
8353;SDS011;4656;48.090;11.498;2024-02-28T04:31:14;25.98;;;17.20;;
8353;SDS011;4656;48.090;11.498;2024-02-28T04:33:16;28.17;;;16.90;;
8353;SDS011;4656;48.090;11.498;2024-02-28T04:35:19;26.23;;;16.23;;
8353;SDS011;4656;48.090;11.498;2024-02-28T04:37:22;28.90;;;16.90;;
8353;SDS011;4656;48.090;11.498;2024-02-28T04:39:24;26.70;;;16.65;;
8353;SDS011;4656;48.090;11.498;2024-02-28T04:41:26;25.67;;;16.23;;
8353;SDS011;4656;48.090;11.498;2024-02-28T04:43:28;26.23;;;16.63;;
8353;SDS011;4656;48.090;11.498;2024-02-28T04:45:30;28.42;;;17.30;;
8353;SDS011;4656;48.090;11.498;2024-02-28T04:47:32;29.80;;;17.30;;
8353;SDS011;4656;48.090;11.498;2024-02-28T04:49:36;26.23;;;16.38;;
8353;SDS011;4656;48.090;11.498;2024-02-28T04:51:39;27.45;;;16.13;;
8353;SDS011;4656;48.090;11.498;2024-02-28T04:53:41;27.55;;;17.60;;
8353;SDS011;4656;48.090;11.498;2024-02-28T04:55:43;26.98;;;17.02;;
8353;SDS011;4656;48.090;11.498;2024-02-28T04:57:45;27.40;;;16.75;;
8353;SDS011;4656;48.090;11.498;2024-02-28T04:59:47;27.23;;;16.38;;
8353;SDS011;4656;48.090;11.498;2024-02-28T05:01:49;30.35;;;17.23;;
8353;SDS011;4656;48.090;11.498;2024-02-28T05:03:52;30.60;;;18.75;;
8353;SDS011;4656;48.090;11.498;2024-02-28T05:05:54;30.27;;;17.85;;
8353;SDS011;4656;48.090;11.498;2024-02-28T05:07:57;33.05;;;18.73;;
8353;SDS011;4656;48.090;11.498;2024-02-28T05:09:59;31.25;;;17.58;;
8353;SDS011;4656;48.090;11.498;2024-02-28T05:12:03;31.30;;;17.80;;
8353;SDS011;4656;48.090;11.498;2024-02-28T05:14:08;30.17;;;18.08;;
8353;SDS011;4656;48.090;11.498;2024-02-28T05:16:14;26.52;;;17.65;;
8353;SDS011;4656;48.090;11.498;2024-02-28T05:18:16;29.92;;;18.70;;
8353;SDS011;4656;48.090;11.498;2024-02-28T05:20:19;29.05;;;17.63;;
8353;SDS011;4656;48.090;11.498;2024-02-28T05:22:21;30.87;;;18.07;;
8353;SDS011;4656;48.090;11.498;2024-02-28T05:24:24;32.17;;;17.77;;
8353;SDS011;4656;48.090;11.498;2024-02-28T05:26:25;27.92;;;17.05;;
8353;SDS011;4656;48.090;11.498;2024-02-28T05:28:28;27.15;;;17.38;;
8353;SDS011;4656;48.090;11.498;2024-02-28T05:30:30;29.85;;;17.50;;
8353;SDS011;4656;48.090;11.498;2024-02-28T05:32:32;29.10;;;17.65;;
8353;SDS011;4656;48.090;11.498;2024-02-28T05:34:33;27.55;;;17.13;;
8353;SDS011;4656;48.090;11.498;2024-02-28T05:36:35;30.77;;;17.00;;
8353;SDS011;4656;48.090;11.498;2024-02-28T05:38:36;25.77;;;17.10;;
8353;SDS011;4656;48.090;11.498;2024-02-28T05:40:40;27.75;;;17.23;;
8353;SDS011;4656;48.090;11.498;2024-02-28T05:42:42;32.22;;;19.00;;
8353;SDS011;4656;48.090;11.498;2024-02-28T05:44:45;29.67;;;17.13;;
8353;SDS011;4656;48.090;11.498;2024-02-28T05:46:47;32.30;;;19.33;;
8353;SDS011;4656;48.090;11.498;2024-02-28T05:48:49;31.23;;;17.83;;
8353;SDS011;4656;48.090;11.498;2024-02-28T05:50:51;31.63;;;18.13;;
8353;SDS011;4656;48.090;11.498;2024-02-28T05:52:53;31.30;;;17.20;;
8353;SDS011;4656;48.090;11.498;2024-02-28T05:54:55;28.15;;;17.23;;
8353;SDS011;4656;48.090;11.498;2024-02-28T05:56:58;27.85;;;18.00;;
8353;SDS011;4656;48.090;11.498;2024-02-28T05:59:00;28.92;;;16.92;;
8353;SDS011;4656;48.090;11.498;2024-02-28T06:01:02;28.95;;;17.58;;
8353;SDS011;4656;48.090;11.498;2024-02-28T06:03:04;28.83;;;18.40;;
8353;SDS011;4656;48.090;11.498;2024-02-28T06:05:06;29.50;;;17.58;;
8353;SDS011;4656;48.090;11.498;2024-02-28T06:07:08;29.40;;;17.65;;
8353;SDS011;4656;48.090;11.498;2024-02-28T06:09:11;28.25;;;17.77;;
8353;SDS011;4656;48.090;11.498;2024-02-28T06:11:13;29.77;;;18.33;;
8353;SDS011;4656;48.090;11.498;2024-02-28T06:13:16;29.33;;;18.02;;
8353;SDS011;4656;48.090;11.498;2024-02-28T06:15:19;30.00;;;18.53;;
8353;SDS011;4656;48.090;11.498;2024-02-28T06:17:21;29.75;;;18.05;;
8353;SDS011;4656;48.090;11.498;2024-02-28T06:19:23;28.95;;;17.90;;
8353;SDS011;4656;48.090;11.498;2024-02-28T06:21:25;28.08;;;16.52;;
8353;SDS011;4656;48.090;11.498;2024-02-28T06:23:27;30.40;;;17.60;;
8353;SDS011;4656;48.090;11.498;2024-02-28T06:25:29;28.75;;;17.13;;
8353;SDS011;4656;48.090;11.498;2024-02-28T06:27:34;29.55;;;17.70;;
8353;SDS011;4656;48.090;11.498;2024-02-28T06:29:37;28.97;;;17.47;;
8353;SDS011;4656;48.090;11.498;2024-02-28T06:31:39;31.17;;;17.33;;
8353;SDS011;4656;48.090;11.498;2024-02-28T06:33:41;31.30;;;17.95;;
8353;SDS011;4656;48.090;11.498;2024-02-28T06:35:42;27.77;;;17.77;;
8353;SDS011;4656;48.090;11.498;2024-02-28T06:37:45;27.42;;;17.17;;
8353;SDS011;4656;48.090;11.498;2024-02-28T06:39:50;28.58;;;16.83;;
8353;SDS011;4656;48.090;11.498;2024-02-28T06:41:53;30.08;;;18.25;;
8353;SDS011;4656;48.090;11.498;2024-02-28T06:43:55;32.10;;;18.15;;
8353;SDS011;4656;48.090;11.498;2024-02-28T06:45:57;29.25;;;17.70;;
8353;SDS011;4656;48.090;11.498;2024-02-28T06:47:59;31.52;;;17.63;;
8353;SDS011;4656;48.090;11.498;2024-02-28T06:50:02;29.55;;;17.42;;
8353;SDS011;4656;48.090;11.498;2024-02-28T06:52:04;29.10;;;17.60;;
8353;SDS011;4656;48.090;11.498;2024-02-28T06:54:07;29.55;;;18.05;;
8353;SDS011;4656;48.090;11.498;2024-02-28T06:56:10;31.55;;;18.92;;
8353;SDS011;4656;48.090;11.498;2024-02-28T06:58:12;32.17;;;18.67;;
8353;SDS011;4656;48.090;11.498;2024-02-28T07:00:13;31.55;;;18.42;;
8353;SDS011;4656;48.090;11.498;2024-02-28T07:02:17;30.45;;;18.33;;
8353;SDS011;4656;48.090;11.498;2024-02-28T07:04:19;30.83;;;18.20;;
8353;SDS011;4656;48.090;11.498;2024-02-28T07:06:21;27.77;;;17.65;;
8353;SDS011;4656;48.090;11.498;2024-02-28T07:08:23;32.63;;;19.58;;
8353;SDS011;4656;48.090;11.498;2024-02-28T07:10:26;32.35;;;18.13;;
8353;SDS011;4656;48.090;11.498;2024-02-28T07:12:28;30.95;;;18.95;;
8353;SDS011;4656;48.090;11.498;2024-02-28T07:14:29;34.70;;;19.63;;
8353;SDS011;4656;48.090;11.498;2024-02-28T07:16:31;37.90;;;20.13;;
8353;SDS011;4656;48.090;11.498;2024-02-28T07:18:36;31.20;;;18.90;;
8353;SDS011;4656;48.090;11.498;2024-02-28T07:20:38;36.38;;;19.88;;
8353;SDS011;4656;48.090;11.498;2024-02-28T07:22:41;37.30;;;20.00;;
8353;SDS011;4656;48.090;11.498;2024-02-28T07:24:44;34.22;;;20.02;;
8353;SDS011;4656;48.090;11.498;2024-02-28T07:26:45;35.03;;;19.92;;
8353;SDS011;4656;48.090;11.498;2024-02-28T07:28:49;33.35;;;19.17;;
8353;SDS011;4656;48.090;11.498;2024-02-28T07:30:51;37.42;;;19.55;;
8353;SDS011;4656;48.090;11.498;2024-02-28T07:32:53;39.38;;;20.40;;
8353;SDS011;4656;48.090;11.498;2024-02-28T07:34:56;32.45;;;19.00;;
8353;SDS011;4656;48.090;11.498;2024-02-28T07:36:59;30.70;;;18.70;;
8353;SDS011;4656;48.090;11.498;2024-02-28T07:39:01;38.70;;;20.55;;
8353;SDS011;4656;48.090;11.498;2024-02-28T07:41:02;32.38;;;18.80;;
8353;SDS011;4656;48.090;11.498;2024-02-28T07:43:05;32.90;;;18.73;;
8353;SDS011;4656;48.090;11.498;2024-02-28T07:45:07;36.63;;;19.40;;
8353;SDS011;4656;48.090;11.498;2024-02-28T07:47:09;35.88;;;21.20;;
8353;SDS011;4656;48.090;11.498;2024-02-28T07:49:10;34.72;;;19.38;;
8353;SDS011;4656;48.090;11.498;2024-02-28T07:51:14;39.70;;;21.13;;
8353;SDS011;4656;48.090;11.498;2024-02-28T07:53:16;42.20;;;21.63;;
8353;SDS011;4656;48.090;11.498;2024-02-28T07:55:19;40.15;;;20.90;;
8353;SDS011;4656;48.090;11.498;2024-02-28T07:57:22;42.95;;;22.17;;
8353;SDS011;4656;48.090;11.498;2024-02-28T07:59:24;40.78;;;22.52;;
8353;SDS011;4656;48.090;11.498;2024-02-28T08:01:28;39.75;;;20.70;;
8353;SDS011;4656;48.090;11.498;2024-02-28T08:03:30;42.92;;;20.73;;
8353;SDS011;4656;48.090;11.498;2024-02-28T08:05:32;38.80;;;21.45;;
8353;SDS011;4656;48.090;11.498;2024-02-28T08:07:40;36.42;;;20.30;;
8353;SDS011;4656;48.090;11.498;2024-02-28T08:09:42;38.33;;;20.33;;
8353;SDS011;4656;48.090;11.498;2024-02-28T08:11:44;37.33;;;20.30;;
8353;SDS011;4656;48.090;11.498;2024-02-28T08:13:46;37.75;;;21.00;;
8353;SDS011;4656;48.090;11.498;2024-02-28T08:15:48;35.72;;;21.33;;
8353;SDS011;4656;48.090;11.498;2024-02-28T08:17:50;39.40;;;22.15;;
8353;SDS011;4656;48.090;11.498;2024-02-28T08:19:52;41.65;;;21.50;;
8353;SDS011;4656;48.090;11.498;2024-02-28T08:21:54;37.72;;;21.88;;
8353;SDS011;4656;48.090;11.498;2024-02-28T08:23:58;38.67;;;21.30;;
8353;SDS011;4656;48.090;11.498;2024-02-28T08:26:02;42.10;;;21.90;;
8353;SDS011;4656;48.090;11.498;2024-02-28T08:28:05;38.83;;;21.88;;
8353;SDS011;4656;48.090;11.498;2024-02-28T08:30:07;37.85;;;21.83;;
8353;SDS011;4656;48.090;11.498;2024-02-28T08:32:09;39.58;;;20.65;;
8353;SDS011;4656;48.090;11.498;2024-02-28T08:34:12;38.55;;;20.52;;
8353;SDS011;4656;48.090;11.498;2024-02-28T08:36:14;38.25;;;19.92;;
8353;SDS011;4656;48.090;11.498;2024-02-28T08:38:16;34.33;;;19.55;;
8353;SDS011;4656;48.090;11.498;2024-02-28T08:40:19;33.20;;;19.05;;
8353;SDS011;4656;48.090;11.498;2024-02-28T08:42:22;36.75;;;20.45;;
8353;SDS011;4656;48.090;11.498;2024-02-28T08:44:24;37.10;;;19.83;;
8353;SDS011;4656;48.090;11.498;2024-02-28T08:46:26;35.40;;;19.65;;
8353;SDS011;4656;48.090;11.498;2024-02-28T08:48:28;38.08;;;20.33;;
8353;SDS011;4656;48.090;11.498;2024-02-28T08:50:30;34.90;;;19.67;;
8353;SDS011;4656;48.090;11.498;2024-02-28T08:52:32;36.92;;;21.00;;
8353;SDS011;4656;48.090;11.498;2024-02-28T08:54:34;37.45;;;20.35;;
8353;SDS011;4656;48.090;11.498;2024-02-28T08:56:38;37.38;;;20.60;;
8353;SDS011;4656;48.090;11.498;2024-02-28T08:58:40;39.60;;;20.65;;
8353;SDS011;4656;48.090;11.498;2024-02-28T09:00:44;35.20;;;19.50;;
8353;SDS011;4656;48.090;11.498;2024-02-28T09:02:46;39.08;;;21.38;;
8353;SDS011;4656;48.090;11.498;2024-02-28T09:04:48;35.70;;;20.07;;
8353;SDS011;4656;48.090;11.498;2024-02-28T09:06:53;35.83;;;20.00;;
8353;SDS011;4656;48.090;11.498;2024-02-28T09:08:55;36.67;;;20.98;;
8353;SDS011;4656;48.090;11.498;2024-02-28T09:10:57;42.45;;;21.38;;
8353;SDS011;4656;48.090;11.498;2024-02-28T09:13:00;36.70;;;20.37;;
8353;SDS011;4656;48.090;11.498;2024-02-28T09:15:03;38.33;;;21.67;;
8353;SDS011;4656;48.090;11.498;2024-02-28T09:17:06;39.53;;;22.07;;
8353;SDS011;4656;48.090;11.498;2024-02-28T09:19:08;41.83;;;22.00;;
8353;SDS011;4656;48.090;11.498;2024-02-28T09:21:09;40.40;;;22.20;;
8353;SDS011;4656;48.090;11.498;2024-02-28T09:23:12;36.20;;;21.23;;
8353;SDS011;4656;48.090;11.498;2024-02-28T09:25:14;38.55;;;21.60;;
8353;SDS011;4656;48.090;11.498;2024-02-28T09:27:18;36.50;;;20.98;;
8353;SDS011;4656;48.090;11.498;2024-02-28T09:29:20;36.38;;;21.10;;
8353;SDS011;4656;48.090;11.498;2024-02-28T09:31:22;36.42;;;21.38;;
8353;SDS011;4656;48.090;11.498;2024-02-28T09:33:24;40.35;;;21.50;;
8353;SDS011;4656;48.090;11.498;2024-02-28T09:35:27;37.75;;;20.58;;
8353;SDS011;4656;48.090;11.498;2024-02-28T09:37:29;37.65;;;20.80;;
8353;SDS011;4656;48.090;11.498;2024-02-28T09:39:31;33.38;;;20.17;;
8353;SDS011;4656;48.090;11.498;2024-02-28T09:41:33;35.42;;;21.02;;
8353;SDS011;4656;48.090;11.498;2024-02-28T09:43:36;35.05;;;20.98;;
8353;SDS011;4656;48.090;11.498;2024-02-28T09:45:43;36.42;;;20.77;;
8353;SDS011;4656;48.090;11.498;2024-02-28T09:47:44;37.92;;;20.42;;
8353;SDS011;4656;48.090;11.498;2024-02-28T09:49:47;35.47;;;20.30;;
8353;SDS011;4656;48.090;11.498;2024-02-28T09:51:51;39.03;;;21.80;;
8353;SDS011;4656;48.090;11.498;2024-02-28T09:53:53;37.13;;;20.52;;
8353;SDS011;4656;48.090;11.498;2024-02-28T09:55:54;35.30;;;20.45;;
8353;SDS011;4656;48.090;11.498;2024-02-28T09:57:56;38.25;;;21.90;;
8353;SDS011;4656;48.090;11.498;2024-02-28T09:59:58;38.78;;;21.92;;
8353;SDS011;4656;48.090;11.498;2024-02-28T10:02:02;36.90;;;20.50;;
8353;SDS011;4656;48.090;11.498;2024-02-28T10:04:04;38.75;;;21.67;;
8353;SDS011;4656;48.090;11.498;2024-02-28T10:06:07;38.67;;;21.08;;
8353;SDS011;4656;48.090;11.498;2024-02-28T10:08:09;38.47;;;20.70;;
8353;SDS011;4656;48.090;11.498;2024-02-28T10:10:11;35.38;;;20.75;;
8353;SDS011;4656;48.090;11.498;2024-02-28T10:12:13;36.35;;;20.05;;
8353;SDS011;4656;48.090;11.498;2024-02-28T10:14:18;37.42;;;20.67;;
8353;SDS011;4656;48.090;11.498;2024-02-28T10:16:21;35.38;;;20.17;;
8353;SDS011;4656;48.090;11.498;2024-02-28T10:18:25;35.55;;;20.77;;
8353;SDS011;4656;48.090;11.498;2024-02-28T10:20:27;33.08;;;19.67;;
8353;SDS011;4656;48.090;11.498;2024-02-28T10:22:35;30.70;;;18.52;;
8353;SDS011;4656;48.090;11.498;2024-02-28T10:24:37;31.48;;;19.05;;
8353;SDS011;4656;48.090;11.498;2024-02-28T10:26:42;30.00;;;18.25;;
8353;SDS011;4656;48.090;11.498;2024-02-28T10:28:45;34.20;;;19.38;;
8353;SDS011;4656;48.090;11.498;2024-02-28T10:30:46;31.90;;;19.10;;
8353;SDS011;4656;48.090;11.498;2024-02-28T10:32:48;34.72;;;20.15;;
8353;SDS011;4656;48.090;11.498;2024-02-28T10:34:51;32.33;;;20.70;;
8353;SDS011;4656;48.090;11.498;2024-02-28T10:36:53;37.72;;;20.60;;
8353;SDS011;4656;48.090;11.498;2024-02-28T10:38:56;33.50;;;19.65;;
8353;SDS011;4656;48.090;11.498;2024-02-28T10:40:58;34.88;;;19.65;;
8353;SDS011;4656;48.090;11.498;2024-02-28T10:43:01;33.75;;;19.45;;
8353;SDS011;4656;48.090;11.498;2024-02-28T10:45:05;33.42;;;19.42;;
8353;SDS011;4656;48.090;11.498;2024-02-28T10:47:07;34.65;;;19.58;;
8353;SDS011;4656;48.090;11.498;2024-02-28T10:49:09;32.30;;;19.35;;
8353;SDS011;4656;48.090;11.498;2024-02-28T10:51:12;34.20;;;19.87;;
8353;SDS011;4656;48.090;11.498;2024-02-28T10:53:20;33.67;;;20.02;;
8353;SDS011;4656;48.090;11.498;2024-02-28T10:55:22;38.17;;;20.08;;
8353;SDS011;4656;48.090;11.498;2024-02-28T10:57:24;34.03;;;19.65;;
8353;SDS011;4656;48.090;11.498;2024-02-28T10:59:27;36.75;;;20.02;;
8353;SDS011;4656;48.090;11.498;2024-02-28T11:01:29;31.98;;;19.67;;
8353;SDS011;4656;48.090;11.498;2024-02-28T11:03:31;34.17;;;19.88;;
8353;SDS011;4656;48.090;11.498;2024-02-28T11:05:36;29.70;;;18.00;;
8353;SDS011;4656;48.090;11.498;2024-02-28T11:07:41;30.95;;;18.73;;
8353;SDS011;4656;48.090;11.498;2024-02-28T11:09:43;30.02;;;18.70;;
8353;SDS011;4656;48.090;11.498;2024-02-28T11:11:46;33.28;;;18.77;;
8353;SDS011;4656;48.090;11.498;2024-02-28T11:13:51;29.40;;;19.10;;
8353;SDS011;4656;48.090;11.498;2024-02-28T11:15:54;31.35;;;18.00;;
8353;SDS011;4656;48.090;11.498;2024-02-28T11:18:06;32.97;;;20.17;;
8353;SDS011;4656;48.090;11.498;2024-02-28T11:20:11;30.35;;;18.58;;
8353;SDS011;4656;48.090;11.498;2024-02-28T11:22:13;31.38;;;18.98;;
8353;SDS011;4656;48.090;11.498;2024-02-28T11:24:17;31.90;;;19.35;;
8353;SDS011;4656;48.090;11.498;2024-02-28T11:26:19;29.77;;;18.02;;
8353;SDS011;4656;48.090;11.498;2024-02-28T11:28:21;31.60;;;18.60;;
8353;SDS011;4656;48.090;11.498;2024-02-28T11:30:24;32.97;;;18.83;;
8353;SDS011;4656;48.090;11.498;2024-02-28T11:32:29;31.53;;;18.90;;
8353;SDS011;4656;48.090;11.498;2024-02-28T11:34:33;34.72;;;19.13;;
8353;SDS011;4656;48.090;11.498;2024-02-28T11:36:35;34.78;;;19.95;;
8353;SDS011;4656;48.090;11.498;2024-02-28T11:38:38;32.50;;;19.45;;
8353;SDS011;4656;48.090;11.498;2024-02-28T11:40:49;35.25;;;19.88;;
8353;SDS011;4656;48.090;11.498;2024-02-28T11:42:51;33.10;;;19.65;;
8353;SDS011;4656;48.090;11.498;2024-02-28T11:44:56;31.17;;;18.80;;
8353;SDS011;4656;48.090;11.498;2024-02-28T11:47:00;35.05;;;19.38;;
8353;SDS011;4656;48.090;11.498;2024-02-28T11:49:02;34.35;;;19.55;;
8353;SDS011;4656;48.090;11.498;2024-02-28T11:51:05;36.63;;;20.38;;
8353;SDS011;4656;48.090;11.498;2024-02-28T11:53:07;29.88;;;18.73;;
8353;SDS011;4656;48.090;11.498;2024-02-28T11:55:09;32.08;;;19.15;;
8353;SDS011;4656;48.090;11.498;2024-02-28T11:57:13;33.55;;;18.88;;
8353;SDS011;4656;48.090;11.498;2024-02-28T11:59:18;31.45;;;19.00;;
8353;SDS011;4656;48.090;11.498;2024-02-28T12:01:31;36.40;;;19.58;;
8353;SDS011;4656;48.090;11.498;2024-02-28T12:03:33;33.25;;;18.75;;
8353;SDS011;4656;48.090;11.498;2024-02-28T12:05:37;31.88;;;18.10;;
8353;SDS011;4656;48.090;11.498;2024-02-28T12:07:39;31.27;;;18.02;;